createdAt,value
2018-08-13T00:01:18.055Z,1.70
2018-08-13T00:03:46.498Z,2.00
2018-08-13T00:06:15.138Z,1.83
2018-08-13T00:08:43.550Z,2.00
2018-08-13T00:11:12.003Z,1.77
2018-08-13T00:13:40.463Z,2.37
2018-08-13T00:16:08.951Z,1.70
2018-08-13T00:18:37.391Z,2.07
2018-08-13T00:21:05.863Z,1.77
2018-08-13T00:23:34.311Z,2.30
2018-08-13T00:26:02.846Z,1.80
2018-08-13T00:28:31.267Z,1.80
2018-08-13T00:30:59.883Z,1.43
2018-08-13T00:33:29.214Z,1.57
2018-08-13T00:35:58.544Z,2.00
2018-08-13T00:38:27.089Z,1.80
2018-08-13T00:40:55.550Z,1.87
2018-08-13T00:43:24.059Z,1.90
2018-08-13T00:45:52.499Z,1.80
2018-08-13T00:48:20.907Z,1.57
2018-08-13T00:50:49.763Z,2.03
2018-08-13T00:53:18.134Z,1.90
2018-08-13T00:55:46.480Z,1.50
2018-08-13T00:58:14.877Z,1.60
2018-08-13T01:00:43.219Z,1.70
2018-08-13T01:03:11.599Z,1.97
2018-08-13T01:05:39.970Z,1.60
2018-08-13T01:08:08.363Z,1.67
2018-08-13T01:10:36.731Z,1.90
2018-08-13T01:13:05.220Z,1.90
2018-08-13T01:15:33.591Z,1.77
2018-08-13T01:18:08.439Z,1.90
2018-08-13T01:20:36.786Z,1.50
2018-08-13T01:23:05.167Z,1.97
2018-08-13T01:25:33.531Z,2.20
2018-08-13T01:28:01.905Z,1.67
2018-08-13T01:30:30.278Z,2.10
2018-08-13T01:32:58.673Z,1.80
2018-08-13T01:35:27.047Z,1.70
2018-08-13T01:37:55.414Z,1.70
2018-08-13T01:40:23.743Z,1.60
2018-08-13T01:42:52.122Z,1.33
2018-08-13T01:45:20.495Z,2.00
2018-08-13T01:47:48.950Z,1.83
2018-08-13T01:50:17.378Z,1.43
2018-08-13T01:52:45.828Z,1.40
2018-08-13T01:55:14.332Z,2.30
2018-08-13T01:57:42.762Z,1.43
2018-08-13T02:00:14.987Z,2.33
2018-08-13T02:02:43.456Z,1.50
2018-08-13T02:05:11.927Z,1.80
2018-08-13T02:07:40.348Z,1.67
2018-08-13T02:10:10.710Z,1.63
2018-08-13T02:12:39.478Z,1.80
2018-08-13T02:15:08.059Z,1.60
2018-08-13T02:17:36.595Z,1.63
2018-08-13T02:20:06.847Z,1.50
2018-08-13T02:22:35.470Z,1.67
2018-08-13T02:25:04.550Z,2.30
2018-08-13T02:27:32.987Z,1.60
2018-08-13T02:30:01.418Z,2.07
2018-08-13T02:32:29.847Z,1.77
2018-08-13T02:34:58.316Z,1.90
2018-08-13T02:37:26.779Z,1.80
2018-08-13T02:39:55.240Z,1.80
2018-08-13T02:42:23.706Z,2.10
2018-08-13T02:44:52.132Z,1.60
2018-08-13T02:47:20.615Z,1.73
2018-08-13T02:49:49.007Z,2.00
2018-08-13T02:54:52.250Z,1.90
2018-08-13T02:57:20.671Z,1.83
2018-08-13T02:59:49.100Z,1.70
2018-08-13T03:02:17.522Z,1.70
2018-08-13T03:04:45.999Z,1.43
2018-08-13T03:07:14.395Z,1.83
2018-08-13T03:09:42.847Z,1.83
2018-08-13T03:12:11.256Z,2.33
2018-08-13T03:14:39.699Z,1.93
2018-08-13T03:17:08.107Z,1.40
2018-08-13T03:19:36.560Z,1.70
2018-08-13T03:22:05.027Z,1.83
2018-08-13T03:27:08.227Z,1.83
2018-08-13T03:29:36.682Z,1.53
2018-08-13T03:32:05.135Z,2.00
2018-08-13T03:34:33.575Z,1.73
2018-08-13T03:37:02.003Z,1.50
2018-08-13T03:39:30.435Z,1.80
2018-08-13T03:41:58.858Z,2.23
2018-08-13T03:44:27.451Z,2.10
2018-08-13T03:46:55.847Z,1.57
2018-08-13T03:49:24.211Z,1.50
2018-08-13T03:51:52.638Z,1.80
2018-08-13T03:54:21.048Z,1.67
2018-08-13T03:56:49.375Z,1.87
2018-08-13T03:59:17.735Z,1.67
2018-08-13T04:01:46.090Z,2.43
2018-08-13T04:04:14.450Z,2.00
2018-08-13T04:06:42.928Z,1.80
2018-08-13T04:09:11.308Z,1.60
2018-08-13T04:11:39.888Z,1.90
2018-08-13T04:14:09.019Z,2.50
2018-08-13T04:16:37.887Z,1.90
2018-08-13T04:19:06.959Z,2.27
2018-08-13T04:21:35.291Z,1.47
2018-08-13T04:24:03.666Z,1.87
2018-08-13T04:26:32.011Z,2.00
2018-08-13T04:29:00.375Z,1.73
2018-08-13T04:31:28.702Z,2.57
2018-08-13T04:33:57.071Z,2.20
2018-08-13T04:36:25.406Z,2.30
2018-08-13T04:38:53.772Z,2.30
2018-08-13T04:41:23.039Z,2.53
2018-08-13T04:43:53.179Z,1.90
2018-08-13T04:46:22.944Z,2.57
2018-08-13T04:48:53.143Z,2.50
2018-08-13T04:51:22.116Z,2.80
2018-08-13T04:53:52.216Z,2.93
2018-08-13T04:56:22.239Z,2.70
2018-08-13T04:58:52.335Z,2.27
2018-08-13T05:01:22.359Z,2.97
2018-08-13T05:03:52.228Z,2.93
2018-08-13T05:06:22.098Z,2.40
2018-08-13T05:08:52.262Z,2.50
2018-08-13T05:11:21.433Z,2.90
2018-08-13T05:13:49.879Z,2.93
2018-08-13T05:16:18.237Z,2.77
2018-08-13T05:18:46.646Z,3.50
2018-08-13T05:21:15.040Z,3.33
2018-08-13T05:23:43.973Z,3.33
2018-08-13T05:26:13.315Z,3.00
2018-08-13T05:28:41.647Z,3.33
2018-08-13T05:31:09.999Z,2.90
2018-08-13T05:33:38.342Z,3.60
2018-08-13T05:36:06.911Z,3.50
2018-08-13T05:38:35.258Z,4.20
2018-08-13T05:41:03.652Z,3.50
2018-08-13T05:43:32.055Z,3.90
2018-08-13T05:46:00.516Z,3.30
2018-08-13T05:48:28.927Z,3.00
2018-08-13T05:50:57.299Z,3.57
2018-08-13T05:53:25.644Z,3.90
2018-08-13T05:55:54.014Z,3.40
2018-08-13T05:58:22.342Z,3.90
2018-08-13T06:00:50.710Z,3.87
2018-08-13T06:03:19.065Z,3.27
2018-08-13T06:05:47.450Z,3.40
2018-08-13T06:08:15.819Z,3.30
2018-08-13T06:10:44.176Z,3.10
2018-08-13T06:13:18.915Z,4.20
2018-08-13T06:15:47.298Z,4.17
2018-08-13T06:18:15.646Z,4.87
2018-08-13T06:20:44.005Z,5.30
2018-08-13T06:23:12.347Z,5.17
2018-08-13T06:25:40.724Z,4.30
2018-08-13T06:28:09.167Z,4.90
2018-08-13T06:30:37.519Z,4.60
2018-08-13T06:33:06.379Z,4.60
2018-08-13T06:35:34.771Z,3.87
2018-08-13T06:38:03.143Z,4.70
2018-08-13T06:40:31.487Z,4.53
2018-08-13T06:42:59.822Z,4.20
2018-08-13T06:45:28.159Z,4.20
2018-08-13T06:47:56.576Z,4.70
2018-08-13T06:50:25.016Z,4.77
2018-08-13T06:52:53.455Z,4.33
2018-08-13T06:55:21.900Z,4.33
2018-08-13T06:57:50.342Z,4.57
2018-08-13T07:00:18.805Z,4.40
2018-08-13T07:02:47.211Z,4.60
2018-08-13T07:05:15.691Z,4.80
2018-08-13T07:07:44.098Z,4.97
2018-08-13T07:10:13.813Z,4.30
2018-08-13T07:12:44.250Z,4.13
2018-08-13T07:15:13.495Z,3.57
2018-08-13T07:17:41.950Z,4.77
2018-08-13T07:20:13.475Z,4.47
2018-08-13T07:22:42.188Z,4.70
2018-08-13T07:25:10.951Z,4.60
2018-08-13T07:27:40.359Z,5.20
2018-08-13T07:30:10.819Z,4.70
2018-08-13T07:32:39.294Z,5.10
2018-08-13T07:35:08.202Z,4.70
2018-08-13T07:37:36.625Z,4.53
2018-08-13T07:40:07.147Z,5.07
2018-08-13T07:42:35.561Z,4.37
2018-08-13T07:45:04.971Z,4.77
2018-08-13T07:47:33.366Z,4.37
2018-08-13T07:50:01.740Z,4.77
2018-08-13T07:52:30.087Z,4.60
2018-08-13T07:54:58.526Z,5.00
2018-08-13T07:57:26.897Z,4.83
2018-08-13T07:59:55.282Z,4.97
2018-08-13T08:02:23.619Z,5.00
2018-08-13T08:04:51.991Z,5.00
2018-08-13T08:07:20.366Z,5.17
2018-08-13T08:09:48.752Z,4.67
2018-08-13T08:12:17.198Z,4.50
2018-08-13T08:14:45.679Z,4.93
2018-08-13T08:17:13.986Z,4.37
2018-08-13T08:19:42.355Z,4.67
2018-08-13T08:22:10.735Z,4.60
2018-08-13T08:24:39.356Z,4.20
2018-08-13T08:27:08.196Z,4.53
2018-08-13T08:29:36.566Z,4.60
2018-08-13T08:32:04.927Z,4.90
2018-08-13T08:34:33.343Z,5.30
2018-08-13T08:37:01.710Z,4.50
2018-08-13T08:39:30.056Z,4.50
2018-08-13T08:41:58.491Z,5.10
2018-08-13T08:44:26.853Z,4.80
2018-08-13T08:46:55.417Z,5.17
2018-08-13T08:49:23.875Z,4.57
2018-08-13T08:51:52.335Z,4.63
2018-08-13T08:54:20.767Z,4.67
2018-08-13T08:56:49.207Z,5.10
2018-08-13T08:59:17.639Z,4.37
2018-08-13T09:01:46.107Z,3.67
2018-08-13T09:04:14.559Z,4.70
2018-08-13T09:06:43.055Z,4.80
2018-08-13T09:09:13.195Z,3.70
2018-08-13T09:11:42.342Z,3.80
2018-08-13T09:14:10.910Z,4.47
2018-08-13T09:16:40.664Z,3.60
2018-08-13T09:19:20.571Z,4.53
2018-08-13T09:21:51.631Z,3.97
2018-08-13T09:24:31.409Z,4.00
2018-08-13T09:27:11.324Z,3.90
2018-08-13T09:29:51.092Z,3.53
2018-08-13T09:33:29.507Z,3.33
2018-08-13T09:35:57.995Z,3.70
2018-08-13T09:38:26.447Z,3.53
2018-08-13T09:41:01.368Z,3.50
2018-08-13T09:43:29.790Z,3.50
2018-08-13T09:45:58.208Z,3.80
2018-08-13T09:48:26.670Z,3.60
2018-08-13T09:50:55.227Z,3.87
2018-08-13T09:53:23.655Z,4.03
2018-08-13T09:55:52.102Z,3.57
2018-08-13T09:58:20.514Z,3.40
2018-08-13T10:00:54.356Z,4.17
2018-08-13T10:03:22.807Z,4.43
2018-08-13T10:05:51.236Z,4.60
2018-08-13T10:08:19.704Z,4.37
2018-08-13T10:10:48.160Z,4.83
2018-08-13T10:13:16.559Z,4.97
2018-08-13T10:15:45.003Z,4.80
2018-08-13T10:18:13.464Z,4.93
2018-08-13T10:20:41.934Z,4.77
2018-08-13T10:23:10.343Z,4.90
2018-08-13T10:25:38.779Z,4.40
2018-08-13T10:28:07.286Z,4.43
2018-08-13T10:30:35.719Z,5.67
2018-08-13T10:33:04.222Z,4.93
2018-08-13T10:35:32.668Z,5.80
2018-08-13T10:38:02.768Z,5.23
2018-08-13T10:40:31.206Z,5.80
2018-08-13T10:42:59.679Z,6.23
2018-08-13T10:45:28.327Z,6.00
2018-08-13T10:47:56.824Z,6.57
2018-08-13T10:50:25.234Z,7.30
2018-08-13T10:52:53.696Z,6.47
2018-08-13T10:55:22.152Z,7.50
2018-08-13T10:57:50.597Z,8.33
2018-08-13T11:00:19.042Z,8.53
2018-08-13T11:02:47.515Z,7.40
2018-08-13T11:05:16.427Z,8.13
2018-08-13T11:07:44.984Z,8.03
2018-08-13T11:10:16.166Z,8.37
2018-08-13T11:12:45.371Z,8.77
2018-08-13T11:15:16.498Z,8.80
2018-08-13T11:17:45.125Z,7.93
2018-08-13T11:20:14.260Z,7.60
2018-08-13T11:22:43.317Z,9.03
2018-08-13T11:25:13.416Z,7.50
2018-08-13T11:27:42.110Z,8.37
2018-08-13T11:30:12.455Z,8.60
2018-08-13T11:32:40.970Z,8.23
2018-08-13T11:35:09.545Z,9.40
2018-08-13T11:37:38.014Z,8.63
2018-08-13T11:40:10.663Z,8.80
2018-08-13T11:42:39.395Z,8.27
2018-08-13T11:45:08.231Z,8.30
2018-08-13T11:47:37.244Z,9.10
2018-08-13T11:50:10.678Z,9.70
2018-08-13T11:52:39.416Z,9.10
2018-08-13T11:55:08.011Z,8.57
2018-08-13T11:57:36.443Z,9.70
2018-08-13T12:00:07.103Z,8.60
2018-08-13T12:02:35.720Z,9.87
2018-08-13T12:05:05.287Z,10.27
2018-08-13T12:07:33.718Z,10.07
2018-08-13T12:10:02.258Z,10.60
2018-08-13T12:12:30.679Z,9.30
2018-08-13T12:14:59.127Z,10.97
2018-08-13T12:17:27.588Z,10.77
2018-08-13T12:20:59.547Z,9.97
2018-08-13T12:23:27.977Z,10.80
2018-08-13T12:25:56.467Z,10.17
2018-08-13T12:28:24.907Z,10.97
2018-08-13T12:30:53.359Z,10.57
2018-08-13T12:33:21.786Z,11.00
2018-08-13T12:35:50.256Z,10.83
2018-08-13T12:38:18.701Z,11.00
2018-08-13T12:40:47.144Z,10.80
2018-08-13T12:43:15.608Z,11.50
2018-08-13T12:45:44.040Z,12.00
2018-08-13T12:48:12.523Z,12.20
2018-08-13T12:50:40.965Z,13.10
2018-08-13T12:53:09.439Z,11.90
2018-08-13T12:55:37.880Z,12.63
2018-08-13T12:58:06.805Z,14.93
2018-08-13T13:00:35.421Z,15.77
2018-08-13T13:03:03.912Z,10.37
2018-08-13T13:05:32.347Z,4.07
2018-08-13T13:08:00.811Z,3.60
2018-08-13T13:10:29.290Z,3.33
2018-08-13T13:12:57.751Z,4.37
2018-08-13T13:15:26.175Z,4.80
2018-08-13T13:17:54.574Z,5.67
2018-08-13T13:20:23.649Z,5.90
2018-08-13T13:22:52.482Z,5.70
2018-08-13T13:25:21.441Z,5.23
2018-08-13T13:27:49.890Z,5.50
2018-08-13T13:30:19.313Z,5.13
2018-08-13T13:32:47.998Z,5.03
2018-08-13T13:35:17.571Z,5.70
2018-08-13T13:37:46.059Z,6.70
2018-08-13T13:40:15.782Z,6.40
2018-08-13T13:42:44.255Z,5.90
2018-08-13T13:45:13.588Z,4.63
2018-08-13T13:47:41.955Z,4.43
2018-08-13T13:50:12.443Z,3.80
2018-08-13T13:52:40.763Z,4.17
2018-08-13T13:55:09.211Z,4.60
2018-08-13T13:57:37.642Z,4.33
2018-08-13T14:00:11.715Z,5.20
2018-08-13T14:02:40.048Z,4.80
2018-08-13T14:05:08.427Z,4.10
2018-08-13T14:07:36.794Z,4.23
2018-08-13T14:10:06.495Z,4.10
2018-08-13T14:12:41.676Z,3.47
2018-08-13T14:15:11.851Z,3.90
2018-08-13T14:17:40.534Z,4.20
2018-08-13T14:20:09.675Z,3.90
2018-08-13T14:22:38.218Z,4.17
2018-08-13T14:25:07.795Z,4.03
2018-08-13T14:27:36.323Z,3.40
2018-08-13T14:30:08.343Z,4.30
2018-08-13T14:32:36.823Z,4.23
2018-08-13T14:35:05.324Z,2.93
2018-08-13T14:37:33.839Z,2.63
2018-08-13T14:40:02.200Z,2.93
2018-08-13T14:42:30.559Z,2.87
2018-08-13T14:44:58.887Z,2.33
2018-08-13T14:47:27.326Z,2.60
2018-08-13T14:49:55.677Z,2.60
2018-08-13T14:52:24.067Z,2.40
2018-08-13T14:54:52.431Z,3.17
2018-08-13T14:57:20.802Z,2.73
2018-08-13T14:59:49.195Z,2.87
2018-08-13T15:02:17.547Z,3.27
2018-08-13T15:04:45.913Z,3.40
2018-08-13T15:07:14.259Z,3.83
2018-08-13T15:09:42.611Z,3.87
2018-08-13T15:12:11.004Z,3.40
2018-08-13T15:14:39.366Z,3.60
2018-08-13T15:17:07.754Z,3.03
2018-08-13T15:19:36.124Z,2.80
2018-08-13T15:22:04.523Z,2.67
2018-08-13T15:24:32.906Z,3.00
2018-08-13T15:27:02.928Z,3.10
2018-08-13T15:29:32.559Z,3.50
2018-08-13T15:32:03.393Z,3.50
2018-08-13T15:34:31.875Z,3.10
2018-08-13T15:37:00.344Z,3.90
2018-08-13T15:39:28.750Z,3.37
2018-08-13T15:41:57.126Z,3.47
2018-08-13T15:44:25.891Z,3.43
2018-08-13T15:46:54.278Z,3.67
2018-08-13T15:49:22.668Z,3.20
2018-08-13T15:51:51.044Z,3.83
2018-08-13T15:54:19.392Z,3.00
2018-08-13T15:56:47.775Z,3.27
2018-08-13T15:59:16.164Z,2.87
2018-08-13T16:01:45.403Z,2.60
2018-08-13T16:04:14.475Z,3.03
2018-08-13T16:06:43.122Z,1.83
2018-08-13T16:09:11.463Z,2.37
2018-08-13T16:11:39.811Z,2.27
2018-08-13T16:14:08.391Z,2.60
2018-08-13T16:16:36.796Z,2.00
2018-08-13T16:19:05.403Z,2.30
2018-08-13T16:21:33.935Z,3.00
2018-08-13T16:24:02.440Z,2.97
2018-08-13T16:26:30.847Z,3.30
2018-08-13T16:28:59.262Z,3.20
2018-08-13T16:31:27.592Z,3.60
2018-08-13T16:33:56.290Z,3.20
2018-08-13T16:36:25.202Z,3.77
2018-08-13T16:38:53.678Z,3.70
2018-08-13T16:41:22.736Z,4.63
2018-08-13T16:43:51.218Z,5.10
2018-08-13T16:46:19.563Z,3.90
2018-08-13T16:48:48.033Z,3.27
2018-08-13T16:51:16.557Z,3.03
2018-08-13T16:53:45.567Z,3.03
2018-08-13T16:56:14.567Z,2.47
2018-08-13T16:58:43.427Z,1.57
2018-08-13T17:01:12.934Z,1.90
2018-08-13T17:03:41.447Z,1.40
2018-08-13T17:06:09.923Z,1.93
2018-08-13T17:08:38.399Z,2.00
2018-08-13T17:11:06.787Z,1.63
2018-08-13T17:13:35.290Z,2.10
2018-08-13T17:16:03.766Z,2.20
2018-08-13T17:18:32.235Z,1.90
2018-08-13T17:21:00.723Z,1.60
2018-08-13T17:23:29.133Z,2.00
2018-08-13T17:25:57.622Z,2.00
2018-08-13T17:28:26.084Z,1.70
2018-08-13T17:30:54.549Z,1.30
2018-08-13T17:33:23.039Z,1.50
2018-08-13T17:35:51.487Z,1.40
2018-08-13T17:38:19.951Z,1.40
2018-08-13T17:40:48.455Z,1.80
2018-08-13T17:43:17.119Z,2.27
2018-08-13T17:45:45.492Z,1.50
2018-08-13T17:48:13.978Z,1.67
2018-08-13T17:50:42.427Z,1.90
2018-08-13T17:53:11.528Z,2.33
2018-08-13T17:55:39.997Z,2.00
2018-08-13T17:58:08.495Z,1.63
2018-08-13T18:00:36.953Z,1.50
2018-08-13T18:03:05.678Z,1.57
2018-08-13T18:05:34.163Z,1.67
2018-08-13T18:08:02.643Z,1.70
2018-08-13T18:10:32.862Z,1.53
2018-08-13T18:13:02.900Z,1.47
2018-08-13T18:15:31.463Z,1.70
2018-08-13T18:17:59.995Z,1.17
2018-08-13T18:20:28.373Z,1.20
2018-08-13T18:22:56.750Z,1.23
2018-08-13T18:25:25.095Z,1.43
2018-08-13T18:27:53.860Z,1.20
2018-08-13T18:30:24.545Z,1.53
2018-08-13T18:32:53.862Z,1.40
2018-08-13T18:35:22.299Z,1.47
2018-08-13T18:37:50.700Z,1.50
2018-08-13T18:40:23.236Z,1.27
2018-08-13T18:42:51.704Z,1.70
2018-08-13T18:45:20.051Z,1.50
2018-08-13T18:47:49.264Z,1.27
2018-08-13T18:50:19.010Z,1.60
2018-08-13T18:52:47.556Z,1.70
2018-08-13T18:55:17.362Z,1.50
2018-08-13T18:57:46.066Z,1.50
2018-08-13T19:00:18.430Z,1.83
2018-08-13T19:02:46.918Z,1.80
2018-08-13T19:05:16.550Z,1.40
2018-08-13T19:07:45.661Z,1.53
2018-08-13T19:10:15.004Z,1.60
2018-08-13T19:12:43.422Z,1.60
2018-08-13T19:15:16.111Z,1.40
2018-08-13T19:17:44.690Z,1.70
2018-08-13T19:20:13.983Z,1.60
2018-08-13T19:22:43.114Z,1.70
2018-08-13T19:25:20.667Z,1.40
2018-08-13T19:27:49.103Z,1.50
2018-08-13T19:30:18.435Z,1.63
2018-08-13T19:32:47.738Z,1.37
2018-08-13T19:35:16.284Z,1.70
2018-08-13T19:37:45.098Z,1.40
2018-08-13T19:40:15.644Z,1.47
2018-08-13T19:42:44.740Z,1.70
2018-08-13T19:45:14.518Z,1.40
2018-08-13T19:47:43.218Z,1.77
2018-08-13T19:50:11.934Z,1.70
2018-08-13T19:52:41.926Z,1.83
2018-08-13T19:55:10.771Z,1.70
2018-08-13T19:57:39.700Z,1.57
2018-08-13T20:00:12.977Z,2.03
2018-08-13T20:02:41.430Z,1.60
2018-08-13T20:05:10.047Z,1.70
2018-08-13T20:07:39.028Z,2.47
2018-08-13T20:10:10.227Z,1.83
2018-08-13T20:12:38.599Z,1.60
2018-08-13T20:15:07.040Z,1.87
2018-08-13T20:17:36.715Z,1.87
2018-08-13T20:20:09.181Z,1.80
2018-08-13T20:22:37.759Z,2.03
2018-08-13T20:25:07.546Z,1.90
2018-08-13T20:27:36.089Z,1.60
2018-08-13T20:30:05.784Z,2.10
2018-08-13T20:32:34.188Z,2.03
2018-08-13T20:35:02.672Z,2.40
2018-08-13T20:37:31.071Z,2.67
2018-08-13T20:39:59.536Z,1.83
2018-08-13T20:42:28.086Z,2.10
2018-08-13T20:44:56.487Z,2.13
2018-08-13T20:47:25.170Z,2.23
2018-08-13T20:49:53.663Z,2.40
2018-08-13T20:52:23.773Z,2.40
2018-08-13T20:54:52.191Z,2.50
2018-08-13T20:57:20.572Z,2.20
2018-08-13T20:59:49.788Z,2.43
2018-08-13T21:02:18.131Z,2.43
2018-08-13T21:04:46.507Z,2.70
2018-08-13T21:07:14.858Z,2.57
2018-08-13T21:09:43.431Z,2.23
2018-08-13T21:12:11.810Z,2.27
2018-08-13T21:14:40.204Z,2.50
2018-08-13T21:17:08.578Z,2.57
2018-08-13T21:19:37.107Z,2.17
2018-08-13T21:22:05.495Z,2.50
2018-08-13T21:24:37.284Z,2.37
2018-08-13T21:27:05.782Z,3.20
2018-08-13T21:29:34.147Z,2.17
2018-08-13T21:32:02.528Z,2.50
2018-08-13T21:34:30.895Z,3.07
2018-08-13T21:36:59.811Z,3.67
2018-08-13T21:39:28.162Z,3.97
2018-08-13T21:41:56.563Z,4.10
2018-08-13T21:44:24.935Z,4.50
2018-08-13T21:46:53.388Z,4.30
2018-08-13T21:49:21.832Z,3.50
2018-08-13T21:51:50.252Z,4.63
2018-08-13T21:54:18.743Z,4.47
2018-08-13T21:56:47.183Z,5.10
2018-08-13T21:59:15.641Z,4.40
2018-08-13T22:01:47.368Z,5.20
2018-08-13T22:04:17.283Z,4.97
2018-08-13T22:06:46.011Z,5.10
2018-08-13T22:09:14.410Z,5.33
2018-08-13T22:11:42.878Z,5.40
2018-08-13T22:14:11.444Z,5.63
2018-08-13T22:16:39.931Z,5.03
2018-08-13T22:19:09.338Z,5.10
2018-08-13T22:21:37.839Z,5.30
2018-08-13T22:24:17.418Z,5.27
2018-08-13T22:26:45.872Z,5.10
2018-08-13T22:29:14.281Z,5.13
2018-08-13T22:31:42.900Z,4.40
2018-08-13T22:34:11.374Z,5.10
2018-08-13T22:36:39.891Z,5.73
2018-08-13T22:39:08.975Z,6.20
2018-08-13T22:41:37.598Z,5.60
2018-08-13T22:44:06.088Z,6.50
2018-08-13T22:46:34.933Z,6.43
2018-08-13T22:49:03.461Z,6.30
2018-08-13T22:51:31.887Z,6.00
2018-08-13T22:54:00.327Z,6.10
2018-08-13T22:56:28.879Z,5.63
2018-08-13T22:58:57.235Z,6.00
2018-08-13T23:01:25.631Z,6.00
2018-08-13T23:03:54.235Z,4.97
2018-08-13T23:06:22.587Z,4.83
2018-08-13T23:08:50.947Z,5.60
2018-08-13T23:11:19.360Z,5.20
2018-08-13T23:13:47.720Z,4.37
2018-08-13T23:16:16.112Z,5.77
2018-08-13T23:18:44.479Z,5.10
2018-08-13T23:21:12.850Z,5.13
2018-08-13T23:23:41.187Z,6.37
2018-08-13T23:26:09.544Z,6.30
2018-08-13T23:28:37.887Z,6.40
2018-08-13T23:31:06.320Z,6.03
2018-08-13T23:33:34.659Z,5.90
2018-08-13T23:36:03.083Z,5.50
2018-08-13T23:38:31.422Z,6.37
2018-08-13T23:40:59.801Z,6.20
2018-08-13T23:43:28.175Z,6.10
2018-08-13T23:45:56.568Z,6.47
2018-08-13T23:48:24.992Z,5.40
2018-08-13T23:50:53.412Z,5.50
2018-08-13T23:53:21.796Z,6.17
2018-08-13T23:55:50.169Z,5.80
2018-08-13T23:58:18.562Z,6.37
